createdAt,value
2019-02-27T00:00:58.261Z,4.87
2019-02-27T00:03:29.118Z,4.90
2019-02-27T00:05:58.045Z,4.60
2019-02-27T00:08:27.554Z,4.83
2019-02-27T00:10:56.734Z,4.53
2019-02-27T00:13:26.147Z,5.10
2019-02-27T00:15:55.225Z,5.30
2019-02-27T00:18:24.513Z,4.83
2019-02-27T00:20:53.674Z,5.60
2019-02-27T00:23:24.141Z,5.93
2019-02-27T00:25:53.698Z,5.70
2019-02-27T00:28:23.351Z,4.40
2019-02-27T00:30:53.023Z,4.70
2019-02-27T00:33:25.238Z,4.47
2019-02-27T00:35:53.102Z,4.93
2019-02-27T00:38:22.802Z,5.37
2019-02-27T00:40:53.010Z,6.20
2019-02-27T00:43:22.149Z,5.23
2019-02-27T00:45:51.313Z,4.77
2019-02-27T00:48:20.391Z,5.37
2019-02-27T00:50:49.608Z,5.13
2019-02-27T00:53:18.776Z,4.60
2019-02-27T00:55:47.926Z,5.33
2019-02-27T00:58:17.023Z,5.10
2019-02-27T01:00:46.139Z,5.90
2019-02-27T01:03:15.268Z,5.53
2019-02-27T01:05:44.349Z,4.63
2019-02-27T01:08:13.568Z,5.70
2019-02-27T01:10:45.184Z,4.93
2019-02-27T01:13:13.705Z,4.60
2019-02-27T01:15:44.726Z,5.83
2019-02-27T01:18:14.075Z,5.03
2019-02-27T01:20:46.502Z,4.20
2019-02-27T01:23:13.983Z,3.97
2019-02-27T01:25:43.125Z,3.60
2019-02-27T01:28:12.282Z,3.53
2019-02-27T01:30:41.439Z,3.53
2019-02-27T01:33:11.705Z,3.13
2019-02-27T01:35:40.833Z,3.90
2019-02-27T01:38:10.023Z,4.40
2019-02-27T01:40:39.190Z,4.30
2019-02-27T01:43:08.278Z,4.10
2019-02-27T01:45:37.386Z,4.17
2019-02-27T01:48:08.889Z,3.73
2019-02-27T01:50:38.289Z,3.87
2019-02-27T01:53:08.622Z,4.80
2019-02-27T01:55:37.846Z,4.77
2019-02-27T01:58:09.563Z,4.80
2019-02-27T02:00:38.254Z,5.00
2019-02-27T02:03:07.498Z,5.30
2019-02-27T02:05:36.642Z,5.23
2019-02-27T02:08:06.280Z,5.50
2019-02-27T02:10:35.348Z,4.83
2019-02-27T02:13:14.784Z,5.63
2019-02-27T02:15:58.159Z,4.63
2019-02-27T02:19:16.199Z,4.90
2019-02-27T02:22:14.300Z,5.70
2019-02-27T02:25:21.781Z,4.37
2019-02-27T02:28:30.974Z,4.40
2019-02-27T02:31:27.987Z,4.47
2019-02-27T02:35:08.244Z,5.10
2019-02-27T02:38:19.558Z,3.73
2019-02-27T02:41:32.856Z,3.20
2019-02-27T02:44:29.462Z,3.30
2019-02-27T02:47:27.070Z,3.00
2019-02-27T02:50:23.880Z,3.00
2019-02-27T02:53:25.007Z,3.20
2019-02-27T02:56:11.937Z,3.40
2019-02-27T02:59:27.163Z,2.50
2019-02-27T03:02:05.360Z,3.37
2019-02-27T03:05:23.262Z,2.90
2019-02-27T03:08:26.392Z,2.93
2019-02-27T03:11:39.564Z,3.10
2019-02-27T03:14:26.947Z,3.57
2019-02-27T03:17:28.328Z,2.87
2019-02-27T03:20:28.314Z,2.83
2019-02-27T03:23:25.778Z,2.80
2019-02-27T03:26:26.208Z,3.30
2019-02-27T03:29:35.272Z,3.10
2019-02-27T03:32:50.033Z,3.47
2019-02-27T03:35:40.655Z,3.10
2019-02-27T03:39:00.330Z,3.00
2019-02-27T03:42:05.426Z,3.33
2019-02-27T03:45:18.534Z,3.47
2019-02-27T03:48:16.032Z,3.53
2019-02-27T03:51:14.501Z,3.63
2019-02-27T03:54:34.093Z,4.40
2019-02-27T03:57:18.800Z,4.20
2019-02-27T04:00:19.184Z,4.03
2019-02-27T04:03:18.344Z,5.20
2019-02-27T04:06:24.409Z,4.60
2019-02-27T04:08:57.785Z,4.90
2019-02-27T04:11:27.195Z,5.27
2019-02-27T04:14:02.971Z,5.10
2019-02-27T04:16:30.279Z,4.70
2019-02-27T04:19:03.154Z,4.50
2019-02-27T04:21:30.509Z,4.40
2019-02-27T04:23:59.763Z,4.53
2019-02-27T04:26:28.786Z,4.00
2019-02-27T04:28:57.809Z,4.13
2019-02-27T04:31:29.624Z,3.83
2019-02-27T04:34:00.371Z,3.67
2019-02-27T04:36:28.503Z,3.63
2019-02-27T04:39:00.039Z,3.40
2019-02-27T04:41:28.647Z,3.60
2019-02-27T04:43:57.902Z,3.87
2019-02-27T04:46:27.095Z,3.73
2019-02-27T04:48:56.278Z,3.30
2019-02-27T04:51:25.458Z,3.50
2019-02-27T04:53:54.936Z,3.63
2019-02-27T04:56:24.128Z,3.20
2019-02-27T04:58:53.273Z,3.60
2019-02-27T05:01:22.382Z,4.47
2019-02-27T05:03:51.577Z,3.60
2019-02-27T05:06:20.592Z,3.40
2019-02-27T05:08:49.694Z,3.20
2019-02-27T05:11:18.878Z,3.87
2019-02-27T05:13:54.071Z,4.20
2019-02-27T05:16:23.391Z,3.80
2019-02-27T05:18:52.612Z,3.73
2019-02-27T05:21:21.750Z,3.73
2019-02-27T05:23:50.946Z,3.43
2019-02-27T05:26:20.120Z,3.87
2019-02-27T05:28:49.410Z,3.30
2019-02-27T05:31:19.144Z,3.10
2019-02-27T05:33:48.380Z,3.70
2019-02-27T05:36:17.512Z,4.20
2019-02-27T05:38:46.560Z,3.30
2019-02-27T05:41:15.708Z,4.40
2019-02-27T05:43:47.987Z,3.90
2019-02-27T05:46:15.782Z,4.00
2019-02-27T05:48:45.049Z,3.30
2019-02-27T05:51:14.260Z,3.70
2019-02-27T05:53:43.386Z,3.40
2019-02-27T05:56:15.687Z,4.40
2019-02-27T05:58:44.239Z,5.10
2019-02-27T06:01:13.755Z,4.53
2019-02-27T06:03:42.915Z,4.40
2019-02-27T06:06:12.455Z,4.70
2019-02-27T06:08:41.625Z,4.30
2019-02-27T06:11:10.769Z,4.33
2019-02-27T06:13:39.833Z,4.50
2019-02-27T06:16:09.289Z,5.33
2019-02-27T06:18:38.674Z,6.90
2019-02-27T06:21:07.850Z,6.17
2019-02-27T06:23:37.897Z,5.97
2019-02-27T06:26:07.527Z,7.03
2019-02-27T06:28:36.678Z,6.10
2019-02-27T06:31:05.730Z,5.70
2019-02-27T06:33:34.888Z,5.40
2019-02-27T06:36:05.295Z,5.53
2019-02-27T06:38:34.829Z,5.70
2019-02-27T06:41:03.944Z,5.10
2019-02-27T06:43:33.099Z,5.43
2019-02-27T06:46:02.068Z,5.10
2019-02-27T06:48:31.136Z,5.77
2019-02-27T06:51:00.968Z,4.97
2019-02-27T06:53:30.734Z,5.07
2019-02-27T06:56:03.108Z,4.93
2019-02-27T06:58:30.764Z,4.10
2019-02-27T07:00:59.934Z,4.10
2019-02-27T07:03:29.806Z,3.93
2019-02-27T07:05:59.774Z,4.03
2019-02-27T07:08:28.910Z,4.70
2019-02-27T07:11:09.934Z,5.30
2019-02-27T07:13:29.854Z,4.60
2019-02-27T07:15:59.141Z,8.83
2019-02-27T07:18:28.314Z,8.53
2019-02-27T07:20:58.285Z,6.87
2019-02-27T07:23:28.326Z,7.10
2019-02-27T07:25:57.560Z,6.30
2019-02-27T07:28:26.699Z,6.63
2019-02-27T07:30:55.830Z,6.07
2019-02-27T07:33:24.995Z,6.43
2019-02-27T07:35:54.128Z,6.10
2019-02-27T07:38:25.459Z,6.70
2019-02-27T07:40:54.035Z,7.27
2019-02-27T07:43:23.073Z,8.40
2019-02-27T07:45:54.201Z,8.23
2019-02-27T07:48:23.030Z,13.20
2019-02-27T07:50:52.142Z,9.23
2019-02-27T07:53:21.252Z,6.10
2019-02-27T07:55:50.361Z,6.03
2019-02-27T07:58:19.643Z,8.00
2019-02-27T08:00:49.940Z,7.73
2019-02-27T08:03:19.681Z,8.17
2019-02-27T08:05:48.803Z,7.80
2019-02-27T08:08:17.960Z,8.10
2019-02-27T08:10:47.963Z,7.60
2019-02-27T08:13:18.674Z,8.03
2019-02-27T08:15:49.082Z,8.53
2019-02-27T08:18:27.106Z,7.13
2019-02-27T08:20:52.060Z,15.60
2019-02-27T08:23:20.402Z,15.10
2019-02-27T08:25:49.694Z,9.70
2019-02-27T08:28:18.790Z,10.00
2019-02-27T08:30:48.083Z,7.73
2019-02-27T08:33:17.202Z,7.07
2019-02-27T08:35:46.349Z,7.20
2019-02-27T08:38:15.415Z,6.00
2019-02-27T08:40:44.418Z,6.37
2019-02-27T08:43:13.556Z,11.27
2019-02-27T08:45:42.633Z,10.10
2019-02-27T08:48:11.759Z,11.40
2019-02-27T08:50:40.786Z,7.87
2019-02-27T08:53:09.905Z,7.63
2019-02-27T08:55:39.824Z,6.93
2019-02-27T08:58:08.923Z,6.90
2019-02-27T09:00:37.905Z,6.40
2019-02-27T09:03:06.936Z,8.37
2019-02-27T09:05:35.994Z,7.77
2019-02-27T09:08:07.376Z,6.83
2019-02-27T09:10:35.765Z,6.77
2019-02-27T09:13:06.079Z,6.90
2019-02-27T09:15:35.315Z,6.90
2019-02-27T09:18:04.513Z,6.50
2019-02-27T09:20:33.775Z,7.30
2019-02-27T09:23:02.978Z,6.90
2019-02-27T09:25:32.181Z,6.07
2019-02-27T09:28:01.335Z,6.37
2019-02-27T09:30:30.492Z,5.33
2019-02-27T09:32:59.797Z,6.20
2019-02-27T09:35:32.560Z,6.10
2019-02-27T09:37:59.994Z,6.00
2019-02-27T09:40:29.859Z,6.53
2019-02-27T09:42:59.271Z,7.20
2019-02-27T09:45:32.371Z,6.80
2019-02-27T09:48:01.538Z,7.17
2019-02-27T09:50:38.565Z,6.70
2019-02-27T09:53:07.654Z,8.70
2019-02-27T09:55:36.953Z,8.40
2019-02-27T09:58:09.933Z,9.00
2019-02-27T10:00:42.910Z,7.63
2019-02-27T10:03:12.090Z,9.90
2019-02-27T10:05:41.331Z,7.97
2019-02-27T10:08:10.993Z,8.03
2019-02-27T10:10:44.889Z,8.50
2019-02-27T10:13:11.104Z,10.03
2019-02-27T10:15:40.248Z,8.83
2019-02-27T10:18:09.399Z,7.80
2019-02-27T10:20:38.485Z,7.57
2019-02-27T10:23:07.611Z,6.93
2019-02-27T10:25:36.602Z,6.90
2019-02-27T10:28:05.962Z,7.50
2019-02-27T10:30:35.227Z,6.60
2019-02-27T10:33:04.475Z,7.60
2019-02-27T10:35:34.858Z,7.30
2019-02-27T10:38:04.132Z,6.60
2019-02-27T10:40:33.291Z,6.77
2019-02-27T10:43:02.478Z,6.27
2019-02-27T10:45:31.583Z,6.97
2019-02-27T10:48:00.671Z,7.60
2019-02-27T10:50:29.739Z,7.47
2019-02-27T10:52:58.803Z,7.57
2019-02-27T10:55:27.907Z,6.97
2019-02-27T10:57:57.084Z,6.80
2019-02-27T11:00:32.648Z,6.43
2019-02-27T11:03:01.726Z,7.30
2019-02-27T11:05:31.720Z,6.57
2019-02-27T11:08:01.047Z,5.70
2019-02-27T11:10:30.173Z,6.40
2019-02-27T11:12:59.327Z,5.80
2019-02-27T11:15:28.414Z,5.30
2019-02-27T11:17:57.556Z,5.50
2019-02-27T11:20:26.717Z,6.47
2019-02-27T11:22:55.835Z,6.30
2019-02-27T11:25:25.238Z,5.03
2019-02-27T11:27:54.668Z,5.50
2019-02-27T11:30:27.068Z,4.20
2019-02-27T11:32:57.840Z,4.80
2019-02-27T11:35:27.872Z,4.43
2019-02-27T11:37:56.962Z,4.40
2019-02-27T11:40:26.163Z,4.60
2019-02-27T11:42:55.162Z,4.53
2019-02-27T11:45:28.022Z,4.10
2019-02-27T11:47:57.330Z,3.63
2019-02-27T11:50:26.482Z,3.70
2019-02-27T11:52:55.654Z,3.10
2019-02-27T11:55:24.806Z,3.73
2019-02-27T11:57:53.819Z,3.57
2019-02-27T12:00:26.132Z,3.93
2019-02-27T12:02:55.456Z,3.30
2019-02-27T12:05:24.910Z,3.47
2019-02-27T12:07:54.052Z,3.20
2019-02-27T12:10:24.423Z,2.90
2019-02-27T12:12:53.683Z,2.80
2019-02-27T12:15:22.840Z,2.67
2019-02-27T12:17:52.086Z,2.33
2019-02-27T12:20:21.475Z,2.47
2019-02-27T12:22:50.684Z,2.57
2019-02-27T12:25:20.182Z,1.83
2019-02-27T12:27:51.881Z,2.00
2019-02-27T12:30:21.039Z,1.80
2019-02-27T12:32:55.791Z,1.83
2019-02-27T12:35:24.417Z,2.40
2019-02-27T12:37:53.769Z,1.70
2019-02-27T12:40:24.944Z,1.33
2019-02-27T12:42:53.772Z,1.50
2019-02-27T12:45:25.807Z,1.90
2019-02-27T12:47:54.411Z,1.67
2019-02-27T12:50:27.042Z,1.80
2019-02-27T12:52:54.566Z,1.97
2019-02-27T12:55:23.715Z,1.70
2019-02-27T12:57:53.091Z,1.63
2019-02-27T13:00:24.627Z,1.43
2019-02-27T13:02:53.727Z,1.90
2019-02-27T13:05:26.415Z,1.97
2019-02-27T13:07:53.591Z,1.57
2019-02-27T13:10:22.885Z,2.30
2019-02-27T13:12:52.587Z,1.70
2019-02-27T13:15:22.462Z,2.00
2019-02-27T13:17:56.122Z,1.90
2019-02-27T13:20:23.734Z,2.37
2019-02-27T13:22:52.921Z,2.23
2019-02-27T13:25:24.286Z,2.17
2019-02-27T13:27:52.957Z,2.30
2019-02-27T13:30:22.088Z,2.87
2019-02-27T13:32:51.273Z,2.27
2019-02-27T13:35:23.152Z,1.80
2019-02-27T13:37:51.337Z,2.27
2019-02-27T13:40:20.635Z,2.50
2019-02-27T13:42:52.362Z,2.30
2019-02-27T13:45:24.559Z,2.30
2019-02-27T13:47:53.696Z,2.40
2019-02-27T13:50:26.417Z,2.53
2019-02-27T13:52:53.562Z,2.50
2019-02-27T13:55:22.698Z,2.70
2019-02-27T13:57:51.863Z,2.53
2019-02-27T14:00:25.669Z,2.93
2019-02-27T14:02:54.102Z,2.60
2019-02-27T14:05:23.150Z,2.73
2019-02-27T14:07:57.297Z,3.20
2019-02-27T14:10:23.372Z,3.03
2019-02-27T14:12:52.321Z,2.80
2019-02-27T14:15:21.335Z,2.67
2019-02-27T14:17:50.480Z,2.90
2019-02-27T14:20:20.018Z,3.00
2019-02-27T14:22:49.227Z,2.93
2019-02-27T14:25:20.052Z,5.50
2019-02-27T14:27:49.139Z,3.83
2019-02-27T14:30:23.346Z,4.40
2019-02-27T14:32:52.567Z,4.37
2019-02-27T14:35:21.773Z,3.30
2019-02-27T14:37:51.207Z,3.40
2019-02-27T14:40:21.010Z,3.43
2019-02-27T14:42:53.989Z,3.60
2019-02-27T14:45:21.663Z,3.40
2019-02-27T14:47:51.458Z,4.03
2019-02-27T14:50:21.374Z,3.20
2019-02-27T14:52:50.542Z,3.50
2019-02-27T14:55:19.807Z,3.80
2019-02-27T14:57:51.148Z,3.13
2019-02-27T15:00:22.007Z,3.50
2019-02-27T15:02:52.127Z,3.30
2019-02-27T15:05:21.384Z,4.00
2019-02-27T15:07:53.657Z,3.70
2019-02-27T15:10:21.644Z,4.10
2019-02-27T15:12:54.288Z,3.80
2019-02-27T15:15:23.656Z,3.97
2019-02-27T15:17:52.803Z,3.87
2019-02-27T15:20:23.027Z,4.00
2019-02-27T15:22:52.710Z,3.40
2019-02-27T15:25:22.825Z,3.80
2019-02-27T15:27:52.000Z,4.80
2019-02-27T15:30:22.802Z,5.43
2019-02-27T15:32:51.982Z,4.17
2019-02-27T15:35:22.122Z,3.60
2019-02-27T15:37:51.521Z,3.50
2019-02-27T15:40:21.608Z,3.40
2019-02-27T15:42:50.754Z,4.17
2019-02-27T15:45:20.320Z,4.13
2019-02-27T15:47:49.456Z,3.37
2019-02-27T15:50:22.676Z,3.20
2019-02-27T15:52:50.444Z,3.23
2019-02-27T15:55:19.621Z,2.87
2019-02-27T15:57:52.217Z,3.23
2019-02-27T16:00:21.112Z,3.10
2019-02-27T16:02:50.208Z,3.73
2019-02-27T16:05:19.286Z,3.30
2019-02-27T16:07:49.414Z,3.43
2019-02-27T16:10:20.183Z,3.20
2019-02-27T16:12:49.356Z,3.40
2019-02-27T16:15:18.556Z,3.30
2019-02-27T16:17:47.693Z,3.47
2019-02-27T16:20:17.440Z,3.40
2019-02-27T16:22:46.472Z,3.33
2019-02-27T16:25:20.226Z,3.10
2019-02-27T16:27:49.359Z,3.07
2019-02-27T16:30:31.079Z,3.00
2019-02-27T16:32:57.470Z,3.57
2019-02-27T16:35:26.742Z,2.97
2019-02-27T16:37:57.687Z,2.90
2019-02-27T16:40:27.305Z,3.10
2019-02-27T16:42:56.516Z,3.50
2019-02-27T16:45:32.351Z,3.67
2019-02-27T16:47:58.548Z,3.50
2019-02-27T16:50:28.215Z,3.57
2019-02-27T16:52:57.554Z,3.00
2019-02-27T16:55:26.663Z,4.13
2019-02-27T16:57:57.494Z,4.07
2019-02-27T17:00:27.893Z,4.47
2019-02-27T17:02:57.218Z,4.37
2019-02-27T17:05:28.416Z,4.50
2019-02-27T17:08:02.268Z,4.17
2019-02-27T17:10:29.629Z,4.30
2019-02-27T17:12:58.900Z,4.03
2019-02-27T17:15:28.029Z,4.40
2019-02-27T17:17:57.095Z,4.33
2019-02-27T17:20:26.284Z,5.40
2019-02-27T17:22:55.438Z,4.20
2019-02-27T17:25:29.028Z,4.40
2019-02-27T17:27:55.587Z,4.77
2019-02-27T17:30:29.494Z,4.33
2019-02-27T17:33:01.443Z,4.57
2019-02-27T17:35:29.524Z,4.13
2019-02-27T17:37:58.626Z,6.00
2019-02-27T17:40:29.275Z,4.67
2019-02-27T17:42:58.413Z,5.20
2019-02-27T17:45:27.461Z,5.00
2019-02-27T17:47:56.548Z,5.17
2019-02-27T17:50:31.251Z,5.07
2019-02-27T17:52:56.494Z,6.43
2019-02-27T17:55:25.587Z,5.90
2019-02-27T17:57:57.996Z,6.23
2019-02-27T18:00:30.408Z,6.23
2019-02-27T18:02:59.545Z,6.10
2019-02-27T18:05:28.615Z,5.80
2019-02-27T18:07:57.848Z,5.17
2019-02-27T18:10:27.331Z,4.87
2019-02-27T18:12:58.901Z,7.03
2019-02-27T18:15:27.361Z,6.00
2019-02-27T18:17:56.522Z,5.40
2019-02-27T18:20:25.871Z,5.63
2019-02-27T18:22:55.354Z,5.87
2019-02-27T18:25:24.792Z,5.27
2019-02-27T18:27:58.574Z,4.30
2019-02-27T18:30:24.940Z,4.83
2019-02-27T18:32:54.772Z,5.37
2019-02-27T18:35:28.486Z,5.13
2019-02-27T18:37:54.985Z,5.20
2019-02-27T18:40:24.479Z,5.27
2019-02-27T18:42:56.371Z,5.40
2019-02-27T18:45:24.496Z,5.70
2019-02-27T18:47:53.538Z,4.83
2019-02-27T18:50:24.787Z,5.43
2019-02-27T18:52:53.587Z,4.63
2019-02-27T18:55:22.720Z,5.40
2019-02-27T18:57:51.917Z,6.03
2019-02-27T19:00:22.093Z,5.60
2019-02-27T19:02:53.243Z,5.40
2019-02-27T19:05:22.549Z,6.60
2019-02-27T19:07:54.845Z,9.03
2019-02-27T19:10:23.040Z,15.77
2019-02-27T19:12:52.675Z,7.37
2019-02-27T19:15:22.212Z,13.00
2019-02-27T19:17:51.736Z,7.60
2019-02-27T19:20:24.735Z,8.00
2019-02-27T19:22:54.302Z,8.23
2019-02-27T19:25:23.758Z,7.97
2019-02-27T19:27:53.174Z,7.57
2019-02-27T19:30:22.313Z,7.60
2019-02-27T19:32:51.439Z,7.03
2019-02-27T19:35:21.750Z,7.10
2019-02-27T19:37:52.503Z,6.17
2019-02-27T19:40:23.567Z,6.20
2019-02-27T19:42:57.701Z,6.33
2019-02-27T19:45:27.091Z,6.40
2019-02-27T19:47:58.209Z,6.00
2019-02-27T19:50:27.566Z,6.20
2019-02-27T19:52:56.665Z,8.17
2019-02-27T19:55:27.434Z,6.57
2019-02-27T19:57:56.873Z,7.07
2019-02-27T20:00:27.048Z,6.80
2019-02-27T20:03:01.189Z,7.43
2019-02-27T20:05:27.666Z,6.73
2019-02-27T20:07:56.837Z,8.00
2019-02-27T20:10:30.174Z,7.90
2019-02-27T20:12:57.652Z,6.37
2019-02-27T20:15:27.317Z,6.30
2019-02-27T20:17:56.349Z,6.77
2019-02-27T20:20:25.542Z,7.43
2019-02-27T20:22:54.972Z,6.60
2019-02-27T20:25:24.188Z,6.33
2019-02-27T20:27:53.436Z,6.50
2019-02-27T20:30:22.640Z,6.97
2019-02-27T20:32:51.921Z,7.10
2019-02-27T20:35:21.572Z,6.90
2019-02-27T20:37:50.754Z,6.83
2019-02-27T20:40:20.179Z,7.73
2019-02-27T20:42:53.723Z,6.13
2019-02-27T20:45:20.668Z,7.63
2019-02-27T20:47:49.858Z,7.90
2019-02-27T20:50:34.200Z,7.83
2019-02-27T20:52:53.083Z,8.30
2019-02-27T20:55:22.266Z,8.17
2019-02-27T20:57:51.667Z,8.60
2019-02-27T21:00:21.372Z,8.40
2019-02-27T21:02:53.554Z,7.63
2019-02-27T21:05:22.490Z,9.03
2019-02-27T21:07:51.839Z,8.17
2019-02-27T21:10:22.319Z,7.63
2019-02-27T21:12:54.279Z,7.63
2019-02-27T21:15:22.476Z,8.50
2019-02-27T21:17:51.718Z,9.93
2019-02-27T21:20:20.914Z,8.90
2019-02-27T21:22:50.082Z,8.63
2019-02-27T21:25:19.206Z,8.90
2019-02-27T21:27:48.353Z,9.33
2019-02-27T21:30:18.991Z,8.40
2019-02-27T21:32:48.335Z,8.60
2019-02-27T21:35:17.548Z,9.20
2019-02-27T21:37:46.750Z,8.00
2019-02-27T21:40:16.102Z,8.13
2019-02-27T21:42:45.227Z,7.47
2019-02-27T21:45:15.527Z,8.00
2019-02-27T21:47:44.776Z,8.60
2019-02-27T21:50:15.555Z,7.37
2019-02-27T21:52:44.631Z,7.30
2019-02-27T21:55:13.796Z,8.17
2019-02-27T21:57:43.087Z,8.90
2019-02-27T22:00:15.165Z,9.40
2019-02-27T22:02:44.395Z,9.10
2019-02-27T22:05:18.422Z,8.87
2019-02-27T22:07:44.671Z,8.70
2019-02-27T22:10:19.050Z,9.27
2019-02-27T22:12:44.812Z,9.40
2019-02-27T22:15:21.820Z,9.23
2019-02-27T22:17:47.525Z,8.90
2019-02-27T22:20:16.591Z,9.00
2019-02-27T22:22:45.906Z,9.03
2019-02-27T22:25:15.119Z,10.20
2019-02-27T22:27:45.922Z,10.57
2019-02-27T22:30:15.923Z,9.73
2019-02-27T22:32:47.419Z,9.53
2019-02-27T22:35:15.950Z,8.47
2019-02-27T22:37:44.970Z,8.50
2019-02-27T22:40:15.315Z,8.67
2019-02-27T22:42:45.528Z,8.23
2019-02-27T22:45:15.706Z,8.57
2019-02-27T22:47:44.905Z,7.30
2019-02-27T22:50:15.154Z,8.40
2019-02-27T22:52:44.330Z,8.97
2019-02-27T22:55:13.473Z,10.00
2019-02-27T22:57:42.623Z,10.17
2019-02-27T23:01:07.493Z,9.20
2019-02-27T23:03:39.576Z,8.93
2019-02-27T23:06:09.210Z,10.07
2019-02-27T23:08:39.586Z,9.43
2019-02-27T23:11:08.843Z,9.87
2019-02-27T23:13:37.967Z,10.20
2019-02-27T23:16:07.063Z,9.00
2019-02-27T23:18:37.457Z,9.43
2019-02-27T23:21:07.164Z,9.90
2019-02-27T23:23:36.800Z,10.40
2019-02-27T23:26:06.581Z,8.77
2019-02-27T23:28:35.832Z,8.67
2019-02-27T23:31:04.893Z,14.10
2019-02-27T23:33:36.589Z,8.97
2019-02-27T23:36:04.905Z,8.57
2019-02-27T23:38:34.899Z,8.30
2019-02-27T23:41:04.999Z,8.90
2019-02-27T23:43:35.116Z,10.37
2019-02-27T23:46:04.366Z,8.43
2019-02-27T23:48:36.121Z,8.13
2019-02-27T23:51:04.504Z,9.00
2019-02-27T23:53:33.634Z,8.93
2019-02-27T23:56:02.788Z,10.27
2019-02-27T23:58:31.864Z,9.53
